General Aviation Weather

Text Reports

Enter one or more of the following location identifiers separated by a space:

Zip Code, Four-Character ICAO or Three-Character IATA airport codes.

METAR - Aviation Routine Weather Report
KYKN - Yankton, South Dakota
Updated at 6:55 PM GMT on April 18, 2014 (1:55 PM CDT):
METAR KYKN 181855Z AUTO 14025G33KT 10SM CLR 18/03 A3006 RMK AO1
TAF - Terminal Area Forecast
KYKN - Yankton, South Dakota
Updated at 6:55 PM GMT on April 18, 2014 (1:55 PM CDT):
No TAF is currently available for this location.
Decoded:
No decoded TAF is available.
PIREP - Pilot Weather Report
KYKN - Yankton, South Dakota
Updated at 6:55 PM GMT on April 18, 2014 (1:55 PM CDT):
No PIREP is currently available for this location.
AIRMET - Airmens Meteorological Information
KYKN - Yankton, South Dakota
Updated at 6:55 PM GMT on April 18, 2014 (1:55 PM CDT):
No AIRMET is currently available for this location.
SIGMET - Significant Meteorological Information
KYKN - Yankton, South Dakota
Updated at 6:55 PM GMT on April 18, 2014 (1:55 PM CDT):
No SIGMET is currently available for this location.
NOTAM - Notice to Airmen
KYKN - Yankton, South Dakota
Updated at 6:55 PM GMT on April 18, 2014 (1:55 PM CDT):
No NOTAM is currently available for this location.
Forecast Area
KYKN - Yankton, South Dakota
Updated at 6:55 PM GMT on April 18, 2014 (1:55 PM CDT):
No NOTAM is currently available for this location.
Aviation Weather Maps